sensor_id;sensor_type;location;lat;lon;timestamp;temperature;humidity
4356;DHT22;2191;51.482;7.408;2022-08-30T00:01:11;24.10;99.90
4356;DHT22;2191;51.482;7.408;2022-08-30T00:03:41;24.10;99.90
4356;DHT22;2191;51.482;7.408;2022-08-30T00:06:14;24.10;99.90
4356;DHT22;2191;51.482;7.408;2022-08-30T00:08:43;24.10;99.90
4356;DHT22;2191;51.482;7.408;2022-08-30T00:11:14;24.20;99.90
4356;DHT22;2191;51.482;7.408;2022-08-30T00:13:46;24.20;99.90
4356;DHT22;2191;51.482;7.408;2022-08-30T00:16:20;24.10;99.90
4356;DHT22;2191;51.482;7.408;2022-08-30T00:18:49;24.10;99.90
4356;DHT22;2191;51.482;7.408;2022-08-30T00:21:17;24.20;99.90
4356;DHT22;2191;51.482;7.408;2022-08-30T00:23:45;24.20;99.90
4356;DHT22;2191;51.482;7.408;2022-08-30T00:26:13;24.10;99.90
4356;DHT22;2191;51.482;7.408;2022-08-30T00:28:41;24.10;99.90
4356;DHT22;2191;51.482;7.408;2022-08-30T00:31:11;24.10;99.90
4356;DHT22;2191;51.482;7.408;2022-08-30T00:33:41;24.10;99.90
4356;DHT22;2191;51.482;7.408;2022-08-30T00:36:09;24.00;99.90
4356;DHT22;2191;51.482;7.408;2022-08-30T00:38:37;24.00;99.90
4356;DHT22;2191;51.482;7.408;2022-08-30T00:41:05;24.00;99.90
4356;DHT22;2191;51.482;7.408;2022-08-30T00:43:35;24.00;99.90
4356;DHT22;2191;51.482;7.408;2022-08-30T00:46:03;24.00;99.90
4356;DHT22;2191;51.482;7.408;2022-08-30T00:48:39;24.00;99.90
4356;DHT22;2191;51.482;7.408;2022-08-30T00:51:10;24.00;99.90
4356;DHT22;2191;51.482;7.408;2022-08-30T00:53:43;24.10;99.90
4356;DHT22;2191;51.482;7.408;2022-08-30T00:56:14;24.10;99.90
4356;DHT22;2191;51.482;7.408;2022-08-30T00:58:47;24.00;99.90
4356;DHT22;2191;51.482;7.408;2022-08-30T01:01:16;24.00;99.90
4356;DHT22;2191;51.482;7.408;2022-08-30T01:03:46;24.00;99.90
4356;DHT22;2191;51.482;7.408;2022-08-30T01:06:16;24.00;99.90
4356;DHT22;2191;51.482;7.408;2022-08-30T01:08:46;23.90;99.90
4356;DHT22;2191;51.482;7.408;2022-08-30T01:11:18;24.00;99.90
4356;DHT22;2191;51.482;7.408;2022-08-30T01:13:47;23.90;99.90
4356;DHT22;2191;51.482;7.408;2022-08-30T01:16:16;23.90;99.90
4356;DHT22;2191;51.482;7.408;2022-08-30T01:18:46;23.90;99.90
4356;DHT22;2191;51.482;7.408;2022-08-30T01:21:18;24.00;99.90
4356;DHT22;2191;51.482;7.408;2022-08-30T01:23:50;23.90;99.90
4356;DHT22;2191;51.482;7.408;2022-08-30T01:26:21;23.90;99.90
4356;DHT22;2191;51.482;7.408;2022-08-30T01:28:54;23.90;99.90
4356;DHT22;2191;51.482;7.408;2022-08-30T01:31:22;23.80;99.90
4356;DHT22;2191;51.482;7.408;2022-08-30T01:33:50;23.80;99.90
4356;DHT22;2191;51.482;7.408;2022-08-30T01:36:19;23.80;99.90
4356;DHT22;2191;51.482;7.408;2022-08-30T01:38:51;23.80;99.90
4356;DHT22;2191;51.482;7.408;2022-08-30T01:41:22;23.80;99.90
4356;DHT22;2191;51.482;7.408;2022-08-30T01:43:52;23.80;99.90
4356;DHT22;2191;51.482;7.408;2022-08-30T01:46:23;23.80;99.90
4356;DHT22;2191;51.482;7.408;2022-08-30T01:48:54;23.80;99.90
4356;DHT22;2191;51.482;7.408;2022-08-30T01:51:24;24.20;99.90
4356;DHT22;2191;51.482;7.408;2022-08-30T01:53:54;23.80;99.90
4356;DHT22;2191;51.482;7.408;2022-08-30T01:56:23;23.80;99.90
4356;DHT22;2191;51.482;7.408;2022-08-30T01:58:51;23.80;99.90
4356;DHT22;2191;51.482;7.408;2022-08-30T02:01:22;23.70;99.90
4356;DHT22;2191;51.482;7.408;2022-08-30T02:03:54;23.70;99.90
4356;DHT22;2191;51.482;7.408;2022-08-30T02:06:22;23.70;99.90
4356;DHT22;2191;51.482;7.408;2022-08-30T02:08:53;23.60;99.90
4356;DHT22;2191;51.482;7.408;2022-08-30T02:11:21;23.70;99.90
4356;DHT22;2191;51.482;7.408;2022-08-30T02:13:49;23.70;99.90
4356;DHT22;2191;51.482;7.408;2022-08-30T02:16:20;23.60;99.90
4356;DHT22;2191;51.482;7.408;2022-08-30T02:18:50;23.60;99.90
4356;DHT22;2191;51.482;7.408;2022-08-30T02:21:19;23.60;99.90
4356;DHT22;2191;51.482;7.408;2022-08-30T02:23:49;23.60;99.90
4356;DHT22;2191;51.482;7.408;2022-08-30T02:26:19;23.60;99.90
4356;DHT22;2191;51.482;7.408;2022-08-30T02:28:47;23.50;99.90
4356;DHT22;2191;51.482;7.408;2022-08-30T02:31:17;23.50;99.90
4356;DHT22;2191;51.482;7.408;2022-08-30T02:33:47;23.50;99.90
4356;DHT22;2191;51.482;7.408;2022-08-30T02:36:16;23.50;99.90
4356;DHT22;2191;51.482;7.408;2022-08-30T02:38:44;23.60;99.90
4356;DHT22;2191;51.482;7.408;2022-08-30T02:41:15;23.50;99.90
4356;DHT22;2191;51.482;7.408;2022-08-30T02:43:45;23.40;99.90
4356;DHT22;2191;51.482;7.408;2022-08-30T02:46:13;23.40;99.90
4356;DHT22;2191;51.482;7.408;2022-08-30T02:48:44;23.60;99.90
4356;DHT22;2191;51.482;7.408;2022-08-30T02:51:13;23.50;99.90
4356;DHT22;2191;51.482;7.408;2022-08-30T02:53:42;23.50;99.90
4356;DHT22;2191;51.482;7.408;2022-08-30T02:56:12;23.50;99.90
4356;DHT22;2191;51.482;7.408;2022-08-30T02:58:40;23.40;99.90
4356;DHT22;2191;51.482;7.408;2022-08-30T03:01:11;23.40;99.90
4356;DHT22;2191;51.482;7.408;2022-08-30T03:03:42;23.40;99.90
4356;DHT22;2191;51.482;7.408;2022-08-30T03:06:11;23.30;99.90
4356;DHT22;2191;51.482;7.408;2022-08-30T03:08:39;23.30;99.90
4356;DHT22;2191;51.482;7.408;2022-08-30T03:11:08;23.30;99.90
4356;DHT22;2191;51.482;7.408;2022-08-30T03:13:36;23.30;99.90
4356;DHT22;2191;51.482;7.408;2022-08-30T03:16:04;23.30;99.90
4356;DHT22;2191;51.482;7.408;2022-08-30T03:18:34;23.20;99.90
4356;DHT22;2191;51.482;7.408;2022-08-30T03:21:02;23.30;99.90
4356;DHT22;2191;51.482;7.408;2022-08-30T03:23:35;23.30;99.90
4356;DHT22;2191;51.482;7.408;2022-08-30T03:26:03;23.30;99.90
4356;DHT22;2191;51.482;7.408;2022-08-30T03:28:32;23.30;99.90
4356;DHT22;2191;51.482;7.408;2022-08-30T03:31:00;23.20;99.90
4356;DHT22;2191;51.482;7.408;2022-08-30T03:33:28;23.20;99.90
4356;DHT22;2191;51.482;7.408;2022-08-30T03:35:58;23.30;99.90
4356;DHT22;2191;51.482;7.408;2022-08-30T03:38:26;23.20;99.90
4356;DHT22;2191;51.482;7.408;2022-08-30T03:40:54;23.20;99.90
4356;DHT22;2191;51.482;7.408;2022-08-30T03:43:22;23.20;99.90
4356;DHT22;2191;51.482;7.408;2022-08-30T03:45:51;23.10;99.90
4356;DHT22;2191;51.482;7.408;2022-08-30T03:48:19;23.00;99.90
4356;DHT22;2191;51.482;7.408;2022-08-30T03:50:47;23.20;99.90
4356;DHT22;2191;51.482;7.408;2022-08-30T03:53:17;23.00;99.90
4356;DHT22;2191;51.482;7.408;2022-08-30T03:55:45;23.00;99.90
4356;DHT22;2191;51.482;7.408;2022-08-30T03:58:15;23.00;99.90
4356;DHT22;2191;51.482;7.408;2022-08-30T04:00:45;23.00;99.90
4356;DHT22;2191;51.482;7.408;2022-08-30T04:03:13;23.00;99.90
4356;DHT22;2191;51.482;7.408;2022-08-30T04:05:41;22.90;99.90
4356;DHT22;2191;51.482;7.408;2022-08-30T04:08:09;22.90;99.90
4356;DHT22;2191;51.482;7.408;2022-08-30T04:10:38;22.90;99.90
4356;DHT22;2191;51.482;7.408;2022-08-30T04:13:07;22.90;99.90
4356;DHT22;2191;51.482;7.408;2022-08-30T04:15:35;22.90;99.90
4356;DHT22;2191;51.482;7.408;2022-08-30T04:18:03;22.90;99.90
4356;DHT22;2191;51.482;7.408;2022-08-30T04:20:33;22.90;99.90
4356;DHT22;2191;51.482;7.408;2022-08-30T04:23:01;22.90;99.90
4356;DHT22;2191;51.482;7.408;2022-08-30T04:25:29;22.80;99.90
4356;DHT22;2191;51.482;7.408;2022-08-30T04:27:59;22.80;99.90
4356;DHT22;2191;51.482;7.408;2022-08-30T04:30:27;22.80;99.90
4356;DHT22;2191;51.482;7.408;2022-08-30T04:32:56;22.70;99.90
4356;DHT22;2191;51.482;7.408;2022-08-30T04:35:25;22.70;99.90
4356;DHT22;2191;51.482;7.408;2022-08-30T04:37:53;22.60;99.90
4356;DHT22;2191;51.482;7.408;2022-08-30T04:40:21;22.50;99.90
4356;DHT22;2191;51.482;7.408;2022-08-30T04:42:50;22.50;99.90
4356;DHT22;2191;51.482;7.408;2022-08-30T04:45:25;22.50;99.90
4356;DHT22;2191;51.482;7.408;2022-08-30T04:47:53;22.50;99.90
4356;DHT22;2191;51.482;7.408;2022-08-30T04:50:23;22.60;99.90
4356;DHT22;2191;51.482;7.408;2022-08-30T04:52:51;22.60;99.90
4356;DHT22;2191;51.482;7.408;2022-08-30T04:55:19;22.60;99.90
4356;DHT22;2191;51.482;7.408;2022-08-30T04:57:47;22.60;99.90
4356;DHT22;2191;51.482;7.408;2022-08-30T05:00:15;22.60;99.90
4356;DHT22;2191;51.482;7.408;2022-08-30T05:02:45;22.60;99.90
4356;DHT22;2191;51.482;7.408;2022-08-30T05:05:14;22.50;99.90
4356;DHT22;2191;51.482;7.408;2022-08-30T05:07:59;22.50;99.90
4356;DHT22;2191;51.482;7.408;2022-08-30T05:10:27;22.50;99.90
4356;DHT22;2191;51.482;7.408;2022-08-30T05:12:55;22.50;99.90
4356;DHT22;2191;51.482;7.408;2022-08-30T05:15:23;22.50;99.90
4356;DHT22;2191;51.482;7.408;2022-08-30T05:17:53;22.60;99.90
4356;DHT22;2191;51.482;7.408;2022-08-30T05:20:21;22.60;99.90
4356;DHT22;2191;51.482;7.408;2022-08-30T05:22:49;22.60;99.90
4356;DHT22;2191;51.482;7.408;2022-08-30T05:25:22;22.70;99.90
4356;DHT22;2191;51.482;7.408;2022-08-30T05:27:51;22.70;99.90
4356;DHT22;2191;51.482;7.408;2022-08-30T05:30:20;22.60;99.90
4356;DHT22;2191;51.482;7.408;2022-08-30T05:32:48;22.60;99.90
4356;DHT22;2191;51.482;7.408;2022-08-30T05:35:18;22.60;99.90
4356;DHT22;2191;51.482;7.408;2022-08-30T05:37:51;22.60;99.90
4356;DHT22;2191;51.482;7.408;2022-08-30T05:40:19;22.80;99.90
4356;DHT22;2191;51.482;7.408;2022-08-30T05:42:48;22.60;99.90
4356;DHT22;2191;51.482;7.408;2022-08-30T05:45:16;22.60;99.90
4356;DHT22;2191;51.482;7.408;2022-08-30T05:47:44;22.60;99.90
4356;DHT22;2191;51.482;7.408;2022-08-30T05:50:14;22.70;99.90
4356;DHT22;2191;51.482;7.408;2022-08-30T05:52:43;22.80;99.90
4356;DHT22;2191;51.482;7.408;2022-08-30T05:55:11;22.70;99.90
4356;DHT22;2191;51.482;7.408;2022-08-30T05:57:40;22.80;99.90
4356;DHT22;2191;51.482;7.408;2022-08-30T06:00:10;22.70;99.90
4356;DHT22;2191;51.482;7.408;2022-08-30T06:02:39;22.70;99.90
4356;DHT22;2191;51.482;7.408;2022-08-30T06:05:08;22.60;99.90
4356;DHT22;2191;51.482;7.408;2022-08-30T06:07:40;22.50;99.90
4356;DHT22;2191;51.482;7.408;2022-08-30T06:10:10;22.40;99.90
4356;DHT22;2191;51.482;7.408;2022-08-30T06:12:40;22.30;99.90
4356;DHT22;2191;51.482;7.408;2022-08-30T06:15:09;22.40;99.90
4356;DHT22;2191;51.482;7.408;2022-08-30T06:17:37;22.50;99.90
4356;DHT22;2191;51.482;7.408;2022-08-30T06:20:06;22.50;99.90
4356;DHT22;2191;51.482;7.408;2022-08-30T06:22:35;22.60;99.90
4356;DHT22;2191;51.482;7.408;2022-08-30T06:25:04;22.70;99.90
4356;DHT22;2191;51.482;7.408;2022-08-30T06:27:34;22.80;99.90
4356;DHT22;2191;51.482;7.408;2022-08-30T06:30:02;22.80;99.90
4356;DHT22;2191;51.482;7.408;2022-08-30T06:32:34;22.80;99.90
4356;DHT22;2191;51.482;7.408;2022-08-30T06:35:02;22.70;99.90
4356;DHT22;2191;51.482;7.408;2022-08-30T06:37:30;22.80;99.90
4356;DHT22;2191;51.482;7.408;2022-08-30T06:40:00;22.90;99.90
4356;DHT22;2191;51.482;7.408;2022-08-30T06:42:30;22.90;99.90
4356;DHT22;2191;51.482;7.408;2022-08-30T06:45:01;22.90;99.90
4356;DHT22;2191;51.482;7.408;2022-08-30T06:47:37;22.80;99.90
4356;DHT22;2191;51.482;7.408;2022-08-30T06:50:07;22.90;99.90
4356;DHT22;2191;51.482;7.408;2022-08-30T06:52:37;22.90;99.90
4356;DHT22;2191;51.482;7.408;2022-08-30T06:55:07;22.90;99.90
4356;DHT22;2191;51.482;7.408;2022-08-30T06:57:35;22.90;99.90
4356;DHT22;2191;51.482;7.408;2022-08-30T07:00:07;22.90;99.90
4356;DHT22;2191;51.482;7.408;2022-08-30T07:02:37;23.00;99.90
4356;DHT22;2191;51.482;7.408;2022-08-30T07:05:06;23.10;99.90
4356;DHT22;2191;51.482;7.408;2022-08-30T07:07:35;23.00;99.90
4356;DHT22;2191;51.482;7.408;2022-08-30T07:10:04;23.00;99.90
4356;DHT22;2191;51.482;7.408;2022-08-30T07:12:35;23.00;99.90
4356;DHT22;2191;51.482;7.408;2022-08-30T07:15:05;23.20;99.90
4356;DHT22;2191;51.482;7.408;2022-08-30T07:17:36;23.20;99.90
4356;DHT22;2191;51.482;7.408;2022-08-30T07:20:21;23.20;99.90
4356;DHT22;2191;51.482;7.408;2022-08-30T07:22:49;23.20;99.90
4356;DHT22;2191;51.482;7.408;2022-08-30T07:25:17;23.30;99.90
4356;DHT22;2191;51.482;7.408;2022-08-30T07:27:45;23.30;99.90
4356;DHT22;2191;51.482;7.408;2022-08-30T07:30:17;23.60;99.90
4356;DHT22;2191;51.482;7.408;2022-08-30T07:32:45;23.40;99.90
4356;DHT22;2191;51.482;7.408;2022-08-30T07:35:14;23.40;99.90
4356;DHT22;2191;51.482;7.408;2022-08-30T07:37:42;23.50;99.90
4356;DHT22;2191;51.482;7.408;2022-08-30T07:40:11;23.30;99.90
4356;DHT22;2191;51.482;7.408;2022-08-30T07:42:39;23.30;99.90
4356;DHT22;2191;51.482;7.408;2022-08-30T07:45:08;23.40;99.90
4356;DHT22;2191;51.482;7.408;2022-08-30T07:47:38;23.30;99.90
4356;DHT22;2191;51.482;7.408;2022-08-30T07:50:08;23.20;99.90
4356;DHT22;2191;51.482;7.408;2022-08-30T07:52:36;23.20;99.90
4356;DHT22;2191;51.482;7.408;2022-08-30T07:55:06;23.50;99.90
4356;DHT22;2191;51.482;7.408;2022-08-30T07:57:34;23.50;99.90
4356;DHT22;2191;51.482;7.408;2022-08-30T08:00:03;23.30;99.90
4356;DHT22;2191;51.482;7.408;2022-08-30T08:02:34;23.20;99.90
4356;DHT22;2191;51.482;7.408;2022-08-30T08:05:04;23.20;99.90
4356;DHT22;2191;51.482;7.408;2022-08-30T08:07:34;23.30;99.90
4356;DHT22;2191;51.482;7.408;2022-08-30T08:10:03;23.40;99.90
4356;DHT22;2191;51.482;7.408;2022-08-30T08:12:31;23.40;99.90
4356;DHT22;2191;51.482;7.408;2022-08-30T08:15:00;23.40;99.90
4356;DHT22;2191;51.482;7.408;2022-08-30T08:17:34;23.50;99.90
4356;DHT22;2191;51.482;7.408;2022-08-30T08:20:04;23.50;99.90
4356;DHT22;2191;51.482;7.408;2022-08-30T08:22:32;23.60;99.90
4356;DHT22;2191;51.482;7.408;2022-08-30T08:25:06;23.50;99.90
4356;DHT22;2191;51.482;7.408;2022-08-30T08:27:34;23.50;99.90
4356;DHT22;2191;51.482;7.408;2022-08-30T08:30:03;23.50;99.90
4356;DHT22;2191;51.482;7.408;2022-08-30T08:32:31;23.50;99.90
4356;DHT22;2191;51.482;7.408;2022-08-30T08:34:59;23.70;99.90
4356;DHT22;2191;51.482;7.408;2022-08-30T08:37:29;23.90;99.90
4356;DHT22;2191;51.482;7.408;2022-08-30T08:39:57;24.00;99.90
4356;DHT22;2191;51.482;7.408;2022-08-30T08:42:31;23.90;99.90
4356;DHT22;2191;51.482;7.408;2022-08-30T08:45:07;23.90;99.90
4356;DHT22;2191;51.482;7.408;2022-08-30T08:47:40;23.80;99.90
4356;DHT22;2191;51.482;7.408;2022-08-30T08:50:16;23.90;99.90
4356;DHT22;2191;51.482;7.408;2022-08-30T08:52:50;23.90;99.90
4356;DHT22;2191;51.482;7.408;2022-08-30T08:55:57;24.00;99.90
4356;DHT22;2191;51.482;7.408;2022-08-30T08:58:26;24.10;99.90
4356;DHT22;2191;51.482;7.408;2022-08-30T09:00:56;24.10;99.90
4356;DHT22;2191;51.482;7.408;2022-08-30T09:03:27;24.20;99.90
4356;DHT22;2191;51.482;7.408;2022-08-30T09:05:55;24.20;99.90
4356;DHT22;2191;51.482;7.408;2022-08-30T09:08:26;24.20;99.90
4356;DHT22;2191;51.482;7.408;2022-08-30T09:10:57;24.10;99.90
4356;DHT22;2191;51.482;7.408;2022-08-30T09:13:27;24.00;99.90
4356;DHT22;2191;51.482;7.408;2022-08-30T09:15:57;24.10;99.90
4356;DHT22;2191;51.482;7.408;2022-08-30T09:18:49;24.10;99.90
4356;DHT22;2191;51.482;7.408;2022-08-30T09:21:23;24.00;99.90
4356;DHT22;2191;51.482;7.408;2022-08-30T09:23:58;23.90;99.90
4356;DHT22;2191;51.482;7.408;2022-08-30T09:26:31;23.90;99.90
4356;DHT22;2191;51.482;7.408;2022-08-30T09:28:59;24.00;99.90
4356;DHT22;2191;51.482;7.408;2022-08-30T09:31:29;24.20;99.90
4356;DHT22;2191;51.482;7.408;2022-08-30T09:34:00;24.20;99.90
4356;DHT22;2191;51.482;7.408;2022-08-30T09:36:33;24.00;99.90
4356;DHT22;2191;51.482;7.408;2022-08-30T09:39:16;24.40;99.90
4356;DHT22;2191;51.482;7.408;2022-08-30T09:41:47;24.50;99.90
4356;DHT22;2191;51.482;7.408;2022-08-30T09:44:18;24.60;99.90
4356;DHT22;2191;51.482;7.408;2022-08-30T09:46:48;24.70;99.90
4356;DHT22;2191;51.482;7.408;2022-08-30T09:49:33;25.00;99.90
4356;DHT22;2191;51.482;7.408;2022-08-30T09:52:17;25.10;99.90
4356;DHT22;2191;51.482;7.408;2022-08-30T09:55:03;25.00;99.90
4356;DHT22;2191;51.482;7.408;2022-08-30T09:57:38;25.10;99.90
4356;DHT22;2191;51.482;7.408;2022-08-30T10:00:15;25.20;99.90
4356;DHT22;2191;51.482;7.408;2022-08-30T10:02:59;25.30;99.90
4356;DHT22;2191;51.482;7.408;2022-08-30T10:05:36;25.40;99.90
4356;DHT22;2191;51.482;7.408;2022-08-30T10:08:15;25.50;99.90
4356;DHT22;2191;51.482;7.408;2022-08-30T10:10:50;25.40;99.90
4356;DHT22;2191;51.482;7.408;2022-08-30T10:13:46;25.40;99.90
4356;DHT22;2191;51.482;7.408;2022-08-30T10:16:29;25.50;99.90
4356;DHT22;2191;51.482;7.408;2022-08-30T10:19:11;25.60;99.90
4356;DHT22;2191;51.482;7.408;2022-08-30T10:21:47;25.70;99.90
4356;DHT22;2191;51.482;7.408;2022-08-30T10:24:21;25.70;99.90
4356;DHT22;2191;51.482;7.408;2022-08-30T10:26:58;25.80;99.90
4356;DHT22;2191;51.482;7.408;2022-08-30T10:29:30;25.90;99.90
4356;DHT22;2191;51.482;7.408;2022-08-30T10:32:01;25.90;99.90
4356;DHT22;2191;51.482;7.408;2022-08-30T10:34:35;25.90;99.90
4356;DHT22;2191;51.482;7.408;2022-08-30T10:37:08;25.90;99.90
4356;DHT22;2191;51.482;7.408;2022-08-30T10:39:41;26.00;99.90
4356;DHT22;2191;51.482;7.408;2022-08-30T10:42:16;26.20;99.90
4356;DHT22;2191;51.482;7.408;2022-08-30T10:44:49;26.10;99.90
4356;DHT22;2191;51.482;7.408;2022-08-30T10:47:24;26.10;99.90
4356;DHT22;2191;51.482;7.408;2022-08-30T10:50:03;25.90;99.90
4356;DHT22;2191;51.482;7.408;2022-08-30T10:52:37;26.00;99.90
4356;DHT22;2191;51.482;7.408;2022-08-30T10:55:10;26.20;99.90
4356;DHT22;2191;51.482;7.408;2022-08-30T10:57:40;26.20;99.90
4356;DHT22;2191;51.482;7.408;2022-08-30T11:00:11;26.30;99.90
4356;DHT22;2191;51.482;7.408;2022-08-30T11:03:13;26.30;99.90
4356;DHT22;2191;51.482;7.408;2022-08-30T11:06:07;26.30;99.90
4356;DHT22;2191;51.482;7.408;2022-08-30T11:08:54;26.30;99.90
4356;DHT22;2191;51.482;7.408;2022-08-30T11:11:34;26.40;99.90
4356;DHT22;2191;51.482;7.408;2022-08-30T11:14:09;26.50;99.90
4356;DHT22;2191;51.482;7.408;2022-08-30T11:16:42;26.70;99.90
4356;DHT22;2191;51.482;7.408;2022-08-30T11:19:18;26.80;99.90
4356;DHT22;2191;51.482;7.408;2022-08-30T11:21:47;27.00;99.90
4356;DHT22;2191;51.482;7.408;2022-08-30T11:24:18;26.90;99.90
4356;DHT22;2191;51.482;7.408;2022-08-30T11:27:00;26.90;99.90
4356;DHT22;2191;51.482;7.408;2022-08-30T11:29:39;27.10;99.90
4356;DHT22;2191;51.482;7.408;2022-08-30T11:35:37;27.10;99.90
4356;DHT22;2191;51.482;7.408;2022-08-30T11:38:56;27.20;99.90
4356;DHT22;2191;51.482;7.408;2022-08-30T11:41:32;27.20;99.90
4356;DHT22;2191;51.482;7.408;2022-08-30T11:44:14;27.30;99.90
4356;DHT22;2191;51.482;7.408;2022-08-30T11:46:54;27.30;99.90
4356;DHT22;2191;51.482;7.408;2022-08-30T11:49:43;27.10;99.90
4356;DHT22;2191;51.482;7.408;2022-08-30T11:52:39;26.90;99.90
4356;DHT22;2191;51.482;7.408;2022-08-30T11:55:31;27.00;99.90
4356;DHT22;2191;51.482;7.408;2022-08-30T11:58:13;27.20;99.90
4356;DHT22;2191;51.482;7.408;2022-08-30T12:00:46;27.30;99.90
4356;DHT22;2191;51.482;7.408;2022-08-30T12:03:31;27.50;99.90
4356;DHT22;2191;51.482;7.408;2022-08-30T12:06:01;27.40;99.90
4356;DHT22;2191;51.482;7.408;2022-08-30T12:08:47;27.40;99.90
4356;DHT22;2191;51.482;7.408;2022-08-30T12:14:34;27.40;99.90
4356;DHT22;2191;51.482;7.408;2022-08-30T12:17:15;27.50;99.90
4356;DHT22;2191;51.482;7.408;2022-08-30T12:20:14;27.60;99.90
4356;DHT22;2191;51.482;7.408;2022-08-30T12:22:43;27.60;99.90
4356;DHT22;2191;51.482;7.408;2022-08-30T12:25:18;27.70;99.90
4356;DHT22;2191;51.482;7.408;2022-08-30T12:27:49;27.80;99.90
4356;DHT22;2191;51.482;7.408;2022-08-30T12:30:25;27.90;99.90
4356;DHT22;2191;51.482;7.408;2022-08-30T12:32:54;28.20;99.90
4356;DHT22;2191;51.482;7.408;2022-08-30T12:35:27;28.30;99.90
4356;DHT22;2191;51.482;7.408;2022-08-30T12:38:00;28.20;99.90
4356;DHT22;2191;51.482;7.408;2022-08-30T12:40:29;28.30;99.90
4356;DHT22;2191;51.482;7.408;2022-08-30T12:43:02;28.30;99.90
4356;DHT22;2191;51.482;7.408;2022-08-30T12:45:37;28.30;99.90
4356;DHT22;2191;51.482;7.408;2022-08-30T12:48:10;28.30;99.90
4356;DHT22;2191;51.482;7.408;2022-08-30T12:50:47;28.30;99.90
4356;DHT22;2191;51.482;7.408;2022-08-30T12:53:23;28.40;99.90
4356;DHT22;2191;51.482;7.408;2022-08-30T12:55:57;28.40;99.90
4356;DHT22;2191;51.482;7.408;2022-08-30T12:58:39;28.40;99.90
4356;DHT22;2191;51.482;7.408;2022-08-30T13:01:23;28.50;99.90
4356;DHT22;2191;51.482;7.408;2022-08-30T13:03:59;28.60;99.90
4356;DHT22;2191;51.482;7.408;2022-08-30T13:06:48;28.20;99.90
4356;DHT22;2191;51.482;7.408;2022-08-30T13:09:22;28.20;99.90
4356;DHT22;2191;51.482;7.408;2022-08-30T13:11:53;28.30;99.90
4356;DHT22;2191;51.482;7.408;2022-08-30T13:14:33;28.30;99.90
4356;DHT22;2191;51.482;7.408;2022-08-30T13:17:21;28.30;99.90
4356;DHT22;2191;51.482;7.408;2022-08-30T13:19:58;28.20;99.90
4356;DHT22;2191;51.482;7.408;2022-08-30T13:22:29;28.30;99.90
4356;DHT22;2191;51.482;7.408;2022-08-30T13:24:58;28.50;99.90
4356;DHT22;2191;51.482;7.408;2022-08-30T13:27:27;28.50;99.90
4356;DHT22;2191;51.482;7.408;2022-08-30T13:29:57;28.40;99.90
4356;DHT22;2191;51.482;7.408;2022-08-30T13:32:39;28.50;99.90
4356;DHT22;2191;51.482;7.408;2022-08-30T13:35:08;28.60;99.90
4356;DHT22;2191;51.482;7.408;2022-08-30T13:37:47;28.50;99.90
4356;DHT22;2191;51.482;7.408;2022-08-30T13:40:19;28.60;99.90
4356;DHT22;2191;51.482;7.408;2022-08-30T13:42:48;28.70;99.90
4356;DHT22;2191;51.482;7.408;2022-08-30T13:45:19;28.80;99.90
4356;DHT22;2191;51.482;7.408;2022-08-30T13:48:07;29.00;99.90
4356;DHT22;2191;51.482;7.408;2022-08-30T13:50:37;28.90;99.90
4356;DHT22;2191;51.482;7.408;2022-08-30T13:53:06;28.90;99.90
4356;DHT22;2191;51.482;7.408;2022-08-30T13:55:36;28.90;99.90
4356;DHT22;2191;51.482;7.408;2022-08-30T13:58:06;28.90;99.90
4356;DHT22;2191;51.482;7.408;2022-08-30T14:00:38;28.90;99.90
4356;DHT22;2191;51.482;7.408;2022-08-30T14:03:06;28.80;99.90
4356;DHT22;2191;51.482;7.408;2022-08-30T14:05:36;28.90;99.90
4356;DHT22;2191;51.482;7.408;2022-08-30T14:08:27;29.10;99.90
4356;DHT22;2191;51.482;7.408;2022-08-30T14:11:18;29.20;99.90
4356;DHT22;2191;51.482;7.408;2022-08-30T14:13:49;29.10;99.90
4356;DHT22;2191;51.482;7.408;2022-08-30T14:16:40;28.90;99.90
4356;DHT22;2191;51.482;7.408;2022-08-30T14:19:10;28.80;99.90
4356;DHT22;2191;51.482;7.408;2022-08-30T14:21:38;28.90;99.90
4356;DHT22;2191;51.482;7.408;2022-08-30T14:24:08;29.00;99.90
4356;DHT22;2191;51.482;7.408;2022-08-30T14:26:38;28.90;99.90
4356;DHT22;2191;51.482;7.408;2022-08-30T14:29:08;28.90;99.90
4356;DHT22;2191;51.482;7.408;2022-08-30T14:31:37;28.90;99.90
4356;DHT22;2191;51.482;7.408;2022-08-30T14:34:06;28.90;99.90
4356;DHT22;2191;51.482;7.408;2022-08-30T14:36:39;28.80;99.90
4356;DHT22;2191;51.482;7.408;2022-08-30T14:39:11;28.90;99.90
4356;DHT22;2191;51.482;7.408;2022-08-30T14:41:46;28.90;99.90
4356;DHT22;2191;51.482;7.408;2022-08-30T14:44:15;28.90;99.90
4356;DHT22;2191;51.482;7.408;2022-08-30T14:46:44;28.80;99.90
4356;DHT22;2191;51.482;7.408;2022-08-30T14:49:13;28.80;99.90
4356;DHT22;2191;51.482;7.408;2022-08-30T14:51:42;28.90;99.90
4356;DHT22;2191;51.482;7.408;2022-08-30T14:54:13;29.00;99.90
4356;DHT22;2191;51.482;7.408;2022-08-30T14:56:42;29.20;99.90
4356;DHT22;2191;51.482;7.408;2022-08-30T14:59:10;29.10;99.90
4356;DHT22;2191;51.482;7.408;2022-08-30T15:01:40;29.10;99.90
4356;DHT22;2191;51.482;7.408;2022-08-30T15:04:10;29.00;99.90
4356;DHT22;2191;51.482;7.408;2022-08-30T15:06:40;29.10;99.90
4356;DHT22;2191;51.482;7.408;2022-08-30T15:09:14;29.20;99.90
4356;DHT22;2191;51.482;7.408;2022-08-30T15:11:50;29.30;99.90
4356;DHT22;2191;51.482;7.408;2022-08-30T15:14:19;29.30;99.90
4356;DHT22;2191;51.482;7.408;2022-08-30T15:16:47;29.30;99.90
4356;DHT22;2191;51.482;7.408;2022-08-30T15:19:16;29.20;99.90
4356;DHT22;2191;51.482;7.408;2022-08-30T15:21:47;29.20;99.90
4356;DHT22;2191;51.482;7.408;2022-08-30T15:24:19;29.20;99.90
4356;DHT22;2191;51.482;7.408;2022-08-30T15:26:56;29.10;99.90
4356;DHT22;2191;51.482;7.408;2022-08-30T15:29:26;29.20;99.90
4356;DHT22;2191;51.482;7.408;2022-08-30T15:31:57;29.20;99.90
4356;DHT22;2191;51.482;7.408;2022-08-30T15:34:26;29.30;99.90
4356;DHT22;2191;51.482;7.408;2022-08-30T15:36:55;29.20;99.90
4356;DHT22;2191;51.482;7.408;2022-08-30T15:39:25;29.10;99.90
4356;DHT22;2191;51.482;7.408;2022-08-30T15:41:53;29.10;99.90
4356;DHT22;2191;51.482;7.408;2022-08-30T15:44:26;29.00;99.90
4356;DHT22;2191;51.482;7.408;2022-08-30T15:46:54;28.80;99.90
4356;DHT22;2191;51.482;7.408;2022-08-30T15:49:23;28.70;99.90
4356;DHT22;2191;51.482;7.408;2022-08-30T15:51:51;28.50;99.90
4356;DHT22;2191;51.482;7.408;2022-08-30T15:54:21;28.40;99.90
4356;DHT22;2191;51.482;7.408;2022-08-30T15:56:51;28.30;99.90
4356;DHT22;2191;51.482;7.408;2022-08-30T15:59:26;28.40;99.90
4356;DHT22;2191;51.482;7.408;2022-08-30T16:01:54;28.40;99.90
4356;DHT22;2191;51.482;7.408;2022-08-30T16:04:23;28.50;99.90
4356;DHT22;2191;51.482;7.408;2022-08-30T16:06:51;28.40;99.90
4356;DHT22;2191;51.482;7.408;2022-08-30T16:09:20;28.40;99.90
4356;DHT22;2191;51.482;7.408;2022-08-30T16:11:57;28.30;99.90
4356;DHT22;2191;51.482;7.408;2022-08-30T16:14:25;28.40;99.90
4356;DHT22;2191;51.482;7.408;2022-08-30T16:16:53;28.30;99.90
4356;DHT22;2191;51.482;7.408;2022-08-30T16:19:21;28.20;99.90
4356;DHT22;2191;51.482;7.408;2022-08-30T16:21:49;28.30;99.90
4356;DHT22;2191;51.482;7.408;2022-08-30T16:24:17;28.30;99.90
4356;DHT22;2191;51.482;7.408;2022-08-30T16:26:48;28.30;99.90
4356;DHT22;2191;51.482;7.408;2022-08-30T16:29:18;28.10;99.90
4356;DHT22;2191;51.482;7.408;2022-08-30T16:31:47;28.10;99.90
4356;DHT22;2191;51.482;7.408;2022-08-30T16:34:17;28.10;99.90
4356;DHT22;2191;51.482;7.408;2022-08-30T16:36:46;28.20;99.90
4356;DHT22;2191;51.482;7.408;2022-08-30T16:39:14;28.10;99.90